This is the latest recevied weather packets stored in our database for station/object DL2GPS-3. If no packets are shown the sender has not sent any weather packets the latest 10 day(s).
| Time | Temp. | Humidity | Pressure | Rain* | Wind** | Luminosity | Snow |
|---|---|---|---|---|---|---|---|
| 1777803805 | 22.78° C | 33% | 1017.7 hPa | - | - | - | - |
| 1777803201 | 22.78° C | 34% | 1017.8 hPa | - | - | - | - |
| 1777802595 | 22.22° C | 34% | 1017.8 hPa | - | - | - | - |
| 1777801991 | 21.67° C | 35% | 1017.9 hPa | - | - | - | - |
| 1777801386 | 22.78° C | 33% | 1017.9 hPa | - | - | - | - |
| 1777800781 | 22.78° C | 34% | 1018 hPa | - | - | - | - |
| 1777800176 | 22.22° C | 33% | 1018 hPa | - | - | - | - |
| 1777799571 | 22.78° C | 33% | 1018.1 hPa | - | - | - | - |
| 1777798966 | 23.33° C | 33% | 1018 hPa | - | - | - | - |
| 1777798361 | 22.22° C | 34% | 1018.2 hPa | - | - | - | - |
| 1777797756 | 22.22° C | 35% | 1018.2 hPa | - | - | - | - |
| 1777797151 | 22.22° C | 37% | 1018.3 hPa | - | - | - | - |
| 1777796545 | 22.22° C | 34% | 1018.2 hPa | - | - | - | - |
| 1777795940 | 22.78° C | 33% | 1018.3 hPa | - | - | - | - |
| 1777795335 | 22.78° C | 34% | 1018.3 hPa | - | - | - | - |
| 1777794730 | 23.33° C | 35% | 1018.3 hPa | - | - | - | - |
| 1777794125 | 23.33° C | 36% | 1018.2 hPa | - | - | - | - |
| 1777793519 | 22.78° C | 37% | 1018.2 hPa | - | - | - | - |
| 1777792915 | 21.67° C | 40% | 1018.3 hPa | - | - | - | - |
| 1777792310 | 19.44° C | 47% | 1018.3 hPa | - | - | - | - |
| 1777791704 | 18.89° C | 48% | 1018.4 hPa | - | - | - | - |
| 1777791100 | 18.89° C | 46% | 1018.4 hPa | - | - | - | - |
| 1777790495 | 20.56° C | 44% | 1018.3 hPa | - | - | - | - |
| 1777789891 | 18.33° C | 50% | 1018.2 hPa | - | - | - | - |
| 1777789285 | 19.44° C | 48% | 1018.1 hPa | - | - | - | - |
* Rain since midnight (hover to see other rain measurements)
** Current wind speed in m/s (hover to see current wind gust speed)